Lomond, Canada
Current Conditions -  °F | °C
As of 4:00 PM on Friday 24 Oct 2014 (Local Time) from CYDF Reporting Station
Broken Clouds Broken Clouds  
Wind Chill: 42°   Ceiling: 10000
Heat Index: 48°   Visibility: 15mi
Dew Point: 37°   Wind: 16mph
Humidity: 66%   Direction: 40°NE
Pressure: 29.84"   Gusts: 25mph
Location:  49.45°N, 57.93°W
Report Text: CYDF 241800Z 04014G22KT 15SM SCT043 BKN100 09/03 A2984 RMK SC4AC3 SLP104
Loading
Personal Weather Stations






























Interactive Weather Map New forecast layout! Learn more

10-Day Weather Forecast

Advertisements
Track Severe Weather on mobile